KBOI/BOI METAR and TAF weather

Enter ICAO airport designator
Station Type Date Time Source
KBOI METAR 2019/08/21 21:53 UTC NOAA

KBOI 212153Z VRB04KT 10SM CLR 33/07 A2984 RMK AO2 SLP071 T03330067


Station Type Date Time Source
KBOI Decoded METAR 2019/08/21 21:53 UTC NOAA

Station name not available
Aug 21, 2019 - 05:53 PM EDT / 2019.08.21 2153 UTC
Wind: Variable at 5 MPH (4 KT):0
Visibility: 10 mile(s):0
Sky conditions: clear
Temperature: 91.9 F (33.3 C)
Dew Point: 44.1 F (6.7 C)
Relative Humidity: 19%
Pressure (altimeter): 29.84 in. Hg (1010 hPa)
ob: KBOI 212153Z VRB04KT 10SM CLR 33/07 A2984 RMK AO2 SLP071 T03330067
cycle: 22

Station Type Date Time Source
KBOI TAF 2019/08/21 18:22 UTC NOAA

TAF KBOI 211720Z 2118/2218 31007KT P6SM SCT250
FM220400 31020G30KT P6SM SCT150 BKN250
FM220900 30010KT P6SM SCT100 BKN150

Example: see airport list